Decoded Metar for KHAF (HALF MOON BAY in CA, USA) (IATA:N/A) | Meteo·Mobile Aviation Weather
aviador You're here:

KHAF Decoded Metar

HALF MOON BAY in CA, USA
Report Time2018-12-14 13:15:00
UTC Time2018-12-14 13:24:14
Flight Rules vfr VFR
Wind180° at 13 kt
W.Decomp.*RWY 12: 9.2 kt HW 9.2 kt RCW
W.Rank180° ranks 7
Current wind is above 180° avg. (8.4)
Visibility9999 m
Phenomena:N/A
Clouds:Few 003 Hf
Scattered 021 Hf
Expected CloudBase > 1,200 ft AGL from Temp-Dew spread
CeilingNone
Temp14°C (ISA -1)
Dew Point11°C (82% RH)
AAT9.6°C
QNH1018 hPa
Density Alt-30 ft
Elevation66 ft
Report Wrong Elevation
Raw Report
KHAF 141315Z AUTO 18013KT 8SM FEW003 SCT021 14/11 A3007 RMK
AO2=

Extra information for KHAF:More info

Metar Taf Metar & Taf Last 4 Metars F.Rules Stats Wind Profile Meteogram Temp Stats Airport Information Weather charts Add Link Nearby VenuesMetar ALERT Operation Metar Decoded Social comments

AIRNAV info for KHAF